Time;durP1;ratioP1;P1;durP2;ratioP2;P2;SDS_P1;SDS_P2;PMS_P1;PMS_P2;Temp;Humidity;BMP_temperature;BMP_pressure;BME280_temperature;BME280_humidity;BME280_pressure;Samples;Min_cycle;Max_cycle;Signal;HPM_P1;HPM_P2
2022/06/04 00:01:34;;;;;;;7.78;4.15;;;;;;;17.17;58.25;100038.75;5041892;28;20029;-86
2022/06/04 00:04:00;;;;;;;9.80;4.25;;;;;;;17.11;58.58;100035.22;5041697;28;20137;-86
2022/06/04 00:06:39;;;;;;;10.30;4.17;;;;;;;17.02;59.15;100035.13;5041009;28;20762;-86
2022/06/04 00:09:06;;;;;;;9.35;4.07;;;;;;;16.91;60.20;100043.53;5041986;28;20270;-86
2022/06/04 00:16:59;;;;;;;7.50;4.50;;;;;;;16.72;60.04;100053.78;5041116;28;20562;-86
2022/06/04 00:19:25;;;;;;;7.28;4.68;;;;;;;16.68;60.73;100051.63;5041106;28;20064;-87
2022/06/04 00:21:51;;;;;;;7.50;3.85;;;;;;;16.80;59.97;100034.63;5041619;28;20044;-86
2022/06/04 00:24:16;;;;;;;5.65;3.53;;;;;;;16.95;59.72;100034.66;5039574;28;20052;-87
2022/06/04 00:26:41;;;;;;;7.38;4.05;;;;;;;16.95;59.55;100023.66;5041828;28;20090;-86
2022/06/04 00:29:09;;;;;;;6.60;3.57;;;;;;;16.96;59.46;100028.06;5040438;28;20052;-86
2022/06/04 00:31:36;;;;;;;7.55;3.70;;;;;;;16.89;59.91;100032.03;5041448;28;20281;-86
2022/06/04 00:34:03;;;;;;;7.45;4.50;;;;;;;16.80;60.13;100014.56;5039067;28;20043;-86
2022/06/04 00:36:28;;;;;;;7.45;3.90;;;;;;;16.84;60.49;100012.81;5038160;28;20028;-86
2022/06/04 00:38:54;;;;;;;5.75;3.83;;;;;;;16.73;60.25;100017.69;5040784;28;20088;-85
2022/06/04 00:41:29;;;;;;;7.70;4.53;;;;;;;16.66;59.83;100020.00;5038444;28;20484;-85
2022/06/04 00:44:03;;;;;;;5.82;3.42;;;;;;;16.76;59.63;100019.84;5040966;28;20037;-85
2022/06/04 00:47:10;;;;;;;6.68;3.67;;;;;;;16.86;59.28;100026.31;5039511;28;20051;-85
2022/06/04 00:49:35;;;;;;;7.78;4.43;;;;;;;16.76;59.70;100025.34;5050683;28;20024;-85
2022/06/04 00:52:01;;;;;;;11.75;3.85;;;;;;;16.76;59.59;100041.06;5060244;28;20071;-84
2022/06/04 00:54:27;;;;;;;5.53;3.80;;;;;;;16.75;59.52;100040.22;5043559;28;20037;-85
2022/06/04 00:57:06;;;;;;;10.25;3.33;;;;;;;16.63;59.18;100032.44;5044465;28;20029;-85
2022/06/04 00:59:51;;;;;;;5.50;2.97;;;;;;;16.75;59.72;100033.91;5043917;28;20086;-85
2022/06/04 01:02:55;;;;;;;6.70;3.55;;;;;;;16.65;59.91;100035.72;5045634;28;20021;-85
2022/06/04 01:05:49;;;;;;;6.43;3.23;;;;;;;16.70;59.57;100045.81;5026105;28;20045;-84
2022/06/04 01:08:20;;;;;;;7.97;3.53;;;;;;;16.63;60.10;100051.69;5025126;28;20029;-85
2022/06/04 01:11:13;;;;;;;7.03;3.55;;;;;;;16.53;60.40;100049.94;5024742;28;20112;-85
2022/06/04 01:13:55;;;;;;;5.50;3.22;;;;;;;16.45;60.54;100059.66;5036564;28;20052;-84
2022/06/04 01:16:40;;;;;;;6.80;3.63;;;;;;;16.54;60.43;100062.56;5042786;28;20061;-85
2022/06/04 01:19:32;;;;;;;7.47;4.40;;;;;;;16.47;60.98;100064.06;5026193;28;20075;-85
2022/06/04 01:22:22;;;;;;;9.20;4.43;;;;;;;16.32;61.22;100066.72;5025160;28;20683;-85
2022/06/04 01:24:59;;;;;;;7.28;3.75;;;;;;;16.37;60.75;100062.25;5024815;28;20029;-83
2022/06/04 01:27:58;;;;;;;12.80;4.18;;;;;;;16.27;61.85;100074.25;5025963;28;20064;-84
2022/06/04 01:30:37;;;;;;;8.70;3.58;;;;;;;16.10;62.50;100076.38;5024467;28;20045;-85
2022/06/04 01:33:10;;;;;;;7.38;4.05;;;;;;;16.02;62.58;100089.94;5030284;28;20486;-84
2022/06/04 01:35:40;;;;;;;5.93;2.90;;;;;;;16.05;62.60;100094.88;5046524;28;20056;-84
2022/06/04 01:38:17;;;;;;;16.77;4.07;;;;;;;16.11;62.63;100096.41;5044108;28;20483;-85
2022/06/04 01:41:08;;;;;;;6.22;3.42;;;;;;;15.99;63.00;100094.88;5054083;28;20033;-84
2022/06/04 01:43:53;;;;;;;8.52;4.32;;;;;;;16.09;62.30;100095.88;5054629;28;20037;-84
2022/06/04 01:46:27;;;;;;;;;;;;;;;16.08;63.18;100105.25;5044351;28;20387;-85
2022/06/04 01:48:56;;;;;;;5.53;3.50;;;;;;;15.87;63.70;100102.72;5025210;28;20018;-84
2022/06/04 01:51:24;;;;;;;6.70;3.72;;;;;;;15.90;63.70;100104.91;5039158;28;20037;-85
2022/06/04 01:53:57;;;;;;;8.57;3.70;;;;;;;15.96;63.37;100092.75;5038165;28;21000;-85
2022/06/04 01:56:28;;;;;;;7.20;4.10;;;;;;;16.08;62.89;100094.28;5046124;28;20021;-84
2022/06/04 01:58:58;;;;;;;9.45;4.20;;;;;;;16.04;63.31;100087.72;5044232;28;20476;-84
2022/06/04 02:01:29;;;;;;;9.90;3.97;;;;;;;16.09;62.59;100093.13;5045526;28;20032;-85
2022/06/04 02:04:08;;;;;;;7.18;4.65;;;;;;;16.07;62.53;100089.88;5040743;28;20052;-85
2022/06/04 02:06:44;;;;;;;7.93;4.55;;;;;;;16.05;63.27;100092.13;5044828;28;20059;-85
2022/06/04 02:09:14;;;;;;;7.70;4.15;;;;;;;16.09;62.66;100095.88;5044028;28;20032;-85
2022/06/04 02:11:44;;;;;;;8.00;4.05;;;;;;;16.11;62.86;100090.91;5043675;28;20013;-85
2022/06/04 02:14:29;;;;;;;7.80;4.32;;;;;;;16.02;62.87;100088.03;5041118;28;21004;-84
2022/06/04 02:17:04;;;;;;;9.05;5.60;;;;;;;16.08;63.26;100084.09;5041770;28;20033;-85
2022/06/04 02:19:30;;;;;;;8.75;4.30;;;;;;;16.05;62.86;100094.88;5045122;28;20491;-85
2022/06/04 02:21:55;;;;;;;7.57;4.55;;;;;;;16.12;62.75;100103.56;5044660;28;20043;-84
2022/06/04 02:24:22;;;;;;;8.50;4.68;;;;;;;15.94;63.75;100100.47;5044431;28;20162;-85
2022/06/04 02:26:48;;;;;;;16.60;5.53;;;;;;;15.81;64.41;100101.13;5045414;28;20033;-83
2022/06/04 02:29:14;;;;;;;8.18;4.13;;;;;;;15.72;64.32;100090.78;5043595;28;20078;-85
2022/06/04 02:32:06;;;;;;;8.45;3.47;;;;;;;15.74;63.87;100091.31;5044864;28;20296;-84
2022/06/04 02:34:49;;;;;;;9.25;4.47;;;;;;;15.73;64.50;100089.69;5046813;28;20037;-85
2022/06/04 02:37:23;;;;;;;17.80;3.93;;;;;;;15.56;64.97;100092.88;5048265;28;20033;-85
2022/06/04 02:39:58;;;;;;;7.93;3.75;;;;;;;15.62;65.03;100091.72;5049295;28;20037;-85
2022/06/04 02:42:45;;;;;;;8.50;4.15;;;;;;;15.67;65.02;100088.09;5066122;28;20027;-84
2022/06/04 02:45:17;;;;;;;6.70;3.13;;;;;;;15.68;64.09;100092.47;5049633;28;20036;-84
2022/06/04 02:47:58;;;;;;;8.23;3.95;;;;;;;15.58;64.44;100085.16;5047721;28;20040;-85
2022/06/04 02:50:35;;;;;;;9.20;4.10;;;;;;;15.55;64.85;100087.69;5048137;28;20029;-83
2022/06/04 02:53:16;;;;;;;6.03;3.15;;;;;;;15.59;64.51;100077.75;5048717;28;20074;-85
2022/06/04 02:55:48;;;;;;;7.07;3.50;;;;;;;15.64;64.41;100069.47;5046410;28;20031;-85
2022/06/04 02:58:16;;;;;;;7.75;4.43;;;;;;;15.67;64.64;100076.28;5048891;28;20415;-84
2022/06/04 03:00:42;;;;;;;13.43;5.80;;;;;;;15.59;65.05;100083.25;5047147;28;20033;-85
2022/06/04 03:03:12;;;;;;;9.05;5.45;;;;;;;15.64;64.34;100085.94;5047696;28;20025;-85
2022/06/04 03:08:41;;;;;;;7.40;4.35;;;;;;;15.42;64.95;100072.72;5042273;28;20471;-83
2022/06/04 03:11:06;;;;;;;8.47;4.73;;;;;;;15.55;64.72;100066.53;5048220;28;20021;-85
2022/06/04 03:13:31;;;;;;;9.43;5.10;;;;;;;15.61;65.00;100048.03;5047067;28;20373;-85
2022/06/04 03:15:57;;;;;;;12.13;5.57;;;;;;;15.57;64.74;100063.47;5047929;28;20278;-84
2022/06/04 03:18:23;;;;;;;14.02;4.10;;;;;;;15.60;64.71;100071.16;5044570;28;21011;-84
2022/06/04 03:20:48;;;;;;;8.70;4.17;;;;;;;15.58;65.40;100070.63;5044379;28;20044;-85
2022/06/04 03:23:13;;;;;;;10.85;4.43;;;;;;;15.51;65.45;100071.78;5047575;28;20270;-85
2022/06/04 03:25:39;;;;;;;6.85;4.20;;;;;;;15.60;64.59;100058.22;5045369;28;20029;-84
2022/06/04 03:28:05;;;;;;;8.23;4.47;;;;;;;15.59;65.13;100051.09;5047316;28;20086;-84
2022/06/04 03:30:31;;;;;;;13.85;4.15;;;;;;;15.57;65.08;100042.31;5044981;28;20463;-85
2022/06/04 03:32:57;;;;;;;8.70;4.25;;;;;;;15.55;65.28;100043.72;5046885;28;20854;-84
2022/06/04 03:35:22;;;;;;;13.30;4.57;;;;;;;15.51;65.47;100041.56;5061585;28;20116;-84
2022/06/04 03:37:48;;;;;;;9.07;5.85;;;;;;;15.55;64.73;100052.78;5045958;28;20031;-85
2022/06/04 03:40:14;;;;;;;8.63;3.80;;;;;;;15.58;64.90;100048.66;5050943;28;20067;-83
2022/06/04 03:42:39;;;;;;;8.73;4.10;;;;;;;15.47;65.02;100048.75;5063242;28;20032;-84
2022/06/04 03:45:07;;;;;;;7.95;4.30;;;;;;;15.48;65.01;100055.03;5046711;28;20025;-84
2022/06/04 03:47:38;;;;;;;11.57;4.35;;;;;;;15.54;65.35;100051.13;5045719;28;20049;-85
2022/06/04 03:50:17;;;;;;;8.50;4.20;;;;;;;15.39;65.16;100049.38;5048355;28;20112;-84
2022/06/04 03:52:47;;;;;;;8.40;3.83;;;;;;;15.42;65.39;100062.53;5046983;28;20040;-85
2022/06/04 03:55:14;;;;;;;14.43;4.97;;;;;;;15.55;65.00;100071.19;5045487;28;20028;-86
2022/06/04 03:57:50;;;;;;;8.65;3.88;;;;;;;15.54;65.09;100078.59;5047771;28;20029;-85
2022/06/04 04:00:31;;;;;;;7.70;4.25;;;;;;;15.59;64.96;100069.50;5046429;28;20136;-85
2022/06/04 04:03:00;;;;;;;10.98;4.55;;;;;;;15.57;65.64;100074.47;5047370;28;20806;-85
2022/06/04 04:05:38;;;;;;;13.25;5.10;;;;;;;15.56;65.62;100081.09;5046410;28;20021;-84
2022/06/04 04:08:06;;;;;;;13.85;4.53;;;;;;;15.52;65.68;100084.41;5045967;28;20051;-83
2022/06/04 04:13:53;;;;;;;7.40;4.03;;;;;;;15.38;65.94;100089.75;5022274;28;20697;-84
2022/06/04 04:16:21;;;;;;;9.27;4.15;;;;;;;15.27;66.71;100110.19;5046722;28;20112;-84
2022/06/04 04:18:47;;;;;;;10.32;4.80;;;;;;;15.35;66.20;100109.56;5027501;28;20029;-85
2022/06/04 04:21:17;;;;;;;7.18;4.28;;;;;;;15.08;67.80;100096.34;5025927;28;20037;-83
2022/06/04 04:23:44;;;;;;;15.23;7.85;;;;;;;15.09;67.99;100098.00;5038154;28;20029;-85
2022/06/04 04:26:12;;;;;;;11.73;6.35;;;;;;;15.08;68.09;100105.41;5045269;28;20032;-86
2022/06/04 04:28:38;;;;;;;9.63;5.30;;;;;;;15.24;66.62;100106.09;5042470;28;20029;-84
2022/06/04 04:31:11;;;;;;;11.93;5.88;;;;;;;15.38;66.68;100088.94;5038771;28;20316;-85
2022/06/04 04:33:36;;;;;;;11.65;4.75;;;;;;;15.45;66.39;100092.19;5042031;28;20025;-85
2022/06/04 04:36:01;;;;;;;7.85;3.92;;;;;;;15.43;65.84;100083.41;5042287;28;20276;-85
2022/06/04 04:38:27;;;;;;;11.40;4.43;;;;;;;15.32;66.14;100099.16;5040213;28;20029;-85
2022/06/04 04:40:52;;;;;;;8.47;4.73;;;;;;;15.32;65.89;100090.09;5051504;28;20025;-85
2022/06/04 04:43:17;;;;;;;8.60;4.32;;;;;;;15.44;65.33;100097.97;5051029;28;20266;-85
2022/06/04 04:45:43;;;;;;;8.55;4.15;;;;;;;15.40;65.76;100094.94;5041579;28;20095;-84
2022/06/04 04:48:10;;;;;;;13.80;5.25;;;;;;;15.44;65.90;100098.75;5038312;28;20128;-85
2022/06/04 04:50:38;;;;;;;20.45;5.22;;;;;;;15.56;65.29;100094.81;5042036;28;20044;-84
2022/06/04 04:53:09;;;;;;;11.25;4.20;;;;;;;15.54;65.87;100094.28;5040413;28;20047;-85
2022/06/04 04:55:35;;;;;;;12.23;5.15;;;;;;;15.56;65.71;100103.06;5039929;28;20427;-85
2022/06/04 04:58:01;;;;;;;7.22;4.32;;;;;;;15.62;65.71;100102.72;5039512;28;20033;-86
2022/06/04 05:00:27;;;;;;;10.98;5.40;;;;;;;15.64;65.76;100111.47;5039755;28;20488;-85
2022/06/04 05:02:53;;;;;;;11.75;5.10;;;;;;;15.70;65.86;100104.00;5040849;28;20029;-85
2022/06/04 05:05:18;;;;;;;8.48;5.13;;;;;;;15.63;66.35;100111.78;5038882;28;20071;-85
2022/06/04 05:07:44;;;;;;;8.48;5.05;;;;;;;15.68;65.42;100108.97;5041358;28;20029;-85
2022/06/04 05:10:12;;;;;;;10.55;5.13;;;;;;;15.79;65.00;100112.44;5040372;28;20120;-82
2022/06/04 05:15:21;;;;;;;;;;;;;;;15.82;64.54;100113.78;5041260;28;20072;-84
2022/06/04 05:17:47;;;;;;;9.30;4.38;;;;;;;15.91;64.69;100116.69;5039058;28;19920;-84
2022/06/04 05:20:12;;;;;;;9.50;4.90;;;;;;;16.04;63.96;100117.97;5041010;28;20025;-83
2022/06/04 05:22:37;;;;;;;9.50;5.78;;;;;;;16.04;63.82;100126.22;5039320;28;20033;-85
2022/06/04 05:25:03;;;;;;;11.87;5.00;;;;;;;15.94;64.47;100127.94;5039359;28;20032;-84
2022/06/04 05:27:29;;;;;;;9.02;4.45;;;;;;;16.13;63.95;100129.94;5040528;28;20278;-85
2022/06/04 05:29:54;;;;;;;10.55;5.93;;;;;;;15.97;64.45;100132.84;5040500;28;20574;-84
2022/06/04 05:32:19;;;;;;;8.87;4.60;;;;;;;15.90;64.08;100142.56;5040736;28;20025;-85
2022/06/04 05:34:44;;;;;;;9.30;4.67;;;;;;;16.10;64.47;100141.53;5039310;28;20270;-85
2022/06/04 05:37:10;;;;;;;10.57;4.87;;;;;;;16.22;63.85;100135.63;5040795;28;20865;-85
2022/06/04 05:39:35;;;;;;;7.60;4.47;;;;;;;16.30;64.09;100136.91;5038990;28;20265;-85
2022/06/04 05:42:01;;;;;;;7.88;4.10;;;;;;;16.10;63.87;100147.03;5060069;28;20257;-85
2022/06/04 05:44:27;;;;;;;8.85;5.40;;;;;;;15.94;64.43;100141.69;5059517;28;20551;-85
2022/06/04 05:46:53;;;;;;;8.15;5.07;;;;;;;15.96;64.78;100147.72;5054950;28;20043;-85
2022/06/04 05:49:19;;;;;;;10.15;5.75;;;;;;;15.87;64.57;100146.72;5040621;28;20043;-85
2022/06/04 05:51:46;;;;;;;12.18;4.45;;;;;;;15.92;65.19;100156.84;5039519;28;20025;-83
2022/06/04 05:54:13;;;;;;;9.23;4.80;;;;;;;15.99;64.63;100160.88;5040436;28;20040;-83
2022/06/04 05:56:42;;;;;;;10.25;4.35;;;;;;;15.95;65.01;100154.31;5038910;28;20128;-85
2022/06/04 05:59:11;;;;;;;10.38;5.07;;;;;;;15.90;64.46;100168.13;5040848;28;20025;-83
2022/06/04 06:01:41;;;;;;;12.68;5.85;;;;;;;16.02;64.35;100164.19;5039113;28;20454;-85
2022/06/04 06:04:08;;;;;;;12.77;5.68;;;;;;;15.96;64.23;100169.72;5040733;28;20029;-84
2022/06/04 06:09:23;;;;;;;8.02;4.72;;;;;;;16.24;63.81;100163.66;5041074;28;20632;-83
2022/06/04 06:11:49;;;;;;;9.55;4.10;;;;;;;16.38;63.95;100168.44;5044442;28;20699;-84
2022/06/04 06:14:16;;;;;;;8.45;5.57;;;;;;;16.53;63.41;100167.44;5043529;28;20574;-84
2022/06/04 06:16:45;;;;;;;9.88;5.47;;;;;;;16.39;63.51;100159.91;5047553;28;20039;-85
2022/06/04 06:19:12;;;;;;;12.52;5.75;;;;;;;16.28;63.58;100163.88;5044321;28;20036;-85
2022/06/04 06:21:37;;;;;;;8.88;4.80;;;;;;;16.17;63.66;100171.44;5043119;28;20025;-83
2022/06/04 06:24:05;;;;;;;9.85;5.53;;;;;;;16.15;63.51;100166.22;5043923;28;20484;-84
2022/06/04 06:26:35;;;;;;;11.13;4.75;;;;;;;16.25;63.71;100170.78;5036328;28;20037;-83
2022/06/04 06:29:03;;;;;;;9.25;4.93;;;;;;;16.40;63.52;100178.03;5024028;28;20045;-84
2022/06/04 06:34:14;;;;;;;8.40;4.57;;;;;;;16.53;62.70;100186.69;5037247;28;20451;-83
2022/06/04 06:36:40;;;;;;;11.02;5.75;;;;;;;16.39;63.39;100178.34;5042793;28;20107;-84
2022/06/04 06:39:06;;;;;;;8.90;5.38;;;;;;;16.54;62.92;100172.63;5041455;28;20025;-84
2022/06/04 06:41:31;;;;;;;9.25;6.07;;;;;;;16.54;62.78;100171.81;5058442;28;20111;-85
2022/06/04 06:43:56;;;;;;;11.60;5.07;;;;;;;16.61;63.63;100180.53;5048015;28;20024;-83
2022/06/04 06:46:28;;;;;;;8.35;4.10;;;;;;;16.69;63.65;100177.13;5042636;28;20434;-81
2022/06/04 06:48:59;;;;;;;13.65;5.40;;;;;;;16.85;63.27;100181.59;5041906;28;20416;-82
2022/06/04 06:51:31;;;;;;;8.95;4.50;;;;;;;16.92;63.62;100188.34;5043156;28;20497;-85
2022/06/04 06:53:57;;;;;;;11.02;4.80;;;;;;;16.49;63.63;100193.91;5042958;28;20183;-84
2022/06/04 06:56:25;;;;;;;12.43;6.18;;;;;;;16.53;63.36;100179.28;5040323;28;20132;-83
2022/06/04 06:58:51;;;;;;;9.57;5.40;;;;;;;16.82;62.67;100194.00;5043431;28;20040;-84
2022/06/04 07:01:17;;;;;;;10.70;5.75;;;;;;;16.82;62.34;100194.00;5039971;28;20029;-86
2022/06/04 07:06:49;;;;;;;7.63;4.40;;;;;;;16.85;62.52;100187.91;5037947;28;20052;-86
2022/06/04 07:09:20;;;;;;;9.48;5.07;;;;;;;17.03;62.60;100193.72;5040666;28;20338;-83
2022/06/04 07:11:45;;;;;;;8.68;4.13;;;;;;;17.20;61.43;100201.50;5043293;28;20162;-85
2022/06/04 07:14:12;;;;;;;7.97;5.00;;;;;;;17.45;61.16;100195.88;5041150;28;20504;-86
2022/06/04 07:16:38;;;;;;;8.63;4.93;;;;;;;17.36;61.03;100196.56;5043396;28;20396;-85
2022/06/04 07:19:05;;;;;;;9.10;4.72;;;;;;;17.45;60.95;100207.69;5041079;28;20121;-87
2022/06/04 07:21:30;;;;;;;17.52;5.95;;;;;;;17.41;61.00;100203.09;5043388;28;20082;-86
2022/06/04 07:23:57;;;;;;;9.20;4.68;;;;;;;17.41;60.80;100203.91;5042659;28;20029;-85
2022/06/04 07:26:23;;;;;;;11.65;5.20;;;;;;;17.48;61.19;100209.03;5042003;28;20025;-83
2022/06/04 07:28:49;;;;;;;8.63;5.53;;;;;;;17.74;60.66;100208.59;5043872;28;20020;-84
2022/06/04 07:31:15;;;;;;;9.20;5.18;;;;;;;17.60;60.77;100203.88;5039766;28;20029;-84
2022/06/04 07:33:45;;;;;;;8.32;4.97;;;;;;;17.58;60.69;100200.59;5041004;28;20464;-83
2022/06/04 07:36:19;;;;;;;10.18;5.30;;;;;;;17.65;61.71;100196.66;5040987;28;20029;-85
2022/06/04 07:38:45;;;;;;;11.15;5.65;;;;;;;17.80;61.32;100207.41;5041463;28;20598;-84
2022/06/04 07:41:33;;;;;;;12.82;6.97;;;;;;;17.72;61.26;100202.56;5053426;28;20024;-85
2022/06/04 07:43:59;;;;;;;8.93;5.50;;;;;;;17.79;60.44;100208.53;5046278;28;20083;-84
2022/06/04 07:46:27;;;;;;;7.82;4.32;;;;;;;17.91;60.80;100209.97;5042060;28;20032;-83
2022/06/04 07:48:58;;;;;;;8.88;5.07;;;;;;;18.01;60.39;100207.03;5040487;28;20039;-85
2022/06/04 07:51:24;;;;;;;8.75;5.20;;;;;;;17.91;60.42;100202.53;5041788;28;20025;-84
2022/06/04 07:53:49;;;;;;;10.05;5.80;;;;;;;17.74;60.97;100200.34;5040721;28;20380;-84
2022/06/04 07:56:17;;;;;;;15.50;5.70;;;;;;;18.14;61.42;100215.63;5041962;28;20086;-84
2022/06/04 07:58:43;;;;;;;17.80;5.40;;;;;;;17.70;60.47;100215.84;5042054;28;20869;-83
2022/06/04 08:01:10;;;;;;;12.63;4.70;;;;;;;17.84;60.49;100216.69;5041316;28;20295;-82
2022/06/04 08:03:37;;;;;;;10.43;4.70;;;;;;;17.53;61.11;100203.47;5046197;28;20029;-85
2022/06/04 08:06:03;;;;;;;10.32;5.80;;;;;;;17.68;61.14;100207.06;5042678;28;20033;-84
2022/06/04 08:08:30;;;;;;;7.85;3.95;;;;;;;17.80;61.01;100204.63;5040541;28;20384;-85
2022/06/04 08:10:57;;;;;;;11.55;5.35;;;;;;;18.00;60.47;100208.13;5040220;28;20029;-90
2022/06/04 08:13:25;;;;;;;11.60;6.32;;;;;;;18.18;59.75;100203.69;5042353;28;20060;-89
2022/06/04 08:15:53;;;;;;;14.80;5.35;;;;;;;18.27;59.73;100205.75;5041834;28;20041;-91
2022/06/04 08:18:19;;;;;;;15.32;5.47;;;;;;;18.36;59.18;100203.09;5040883;28;20024;-91
2022/06/04 08:20:44;;;;;;;10.15;5.32;;;;;;;18.55;59.54;100203.78;5043541;28;20029;-90
2022/06/04 08:23:11;;;;;;;8.23;5.03;;;;;;;18.62;58.40;100205.31;5040885;28;20063;-90
2022/06/04 08:25:41;;;;;;;8.95;4.80;;;;;;;18.63;58.38;100205.00;5042550;28;20602;-89
2022/06/04 08:28:07;;;;;;;13.95;6.13;;;;;;;18.70;58.26;100206.53;5041511;28;20482;-84
2022/06/04 08:30:33;;;;;;;12.98;6.18;;;;;;;18.54;58.84;100206.88;5040878;28;20033;-89
2022/06/04 08:32:58;;;;;;;9.68;5.70;;;;;;;18.72;58.10;100210.63;5041767;28;20033;-91
2022/06/04 08:35:24;;;;;;;11.47;5.77;;;;;;;18.74;57.81;100208.38;5041824;28;20032;-89
2022/06/04 08:37:49;;;;;;;10.45;5.72;;;;;;;18.93;58.24;100209.34;5043388;28;20280;-90
2022/06/04 08:40:46;;;;;;;8.57;5.03;;;;;;;18.95;57.53;100215.38;5045318;28;20032;-90
2022/06/04 08:43:51;;;;;;;12.00;6.22;;;;;;;18.84;57.32;100215.59;5053541;28;20139;-89
2022/06/04 08:46:24;;;;;;;9.52;5.57;;;;;;;19.04;57.58;100207.97;5041403;28;20025;-89
2022/06/04 08:48:51;;;;;;;8.07;5.88;;;;;;;19.00;57.58;100205.03;5021146;28;20898;-86
2022/06/04 08:51:24;;;;;;;10.05;6.15;;;;;;;19.05;57.61;100206.03;5022649;28;20405;-89
2022/06/04 08:53:53;;;;;;;25.38;5.25;;;;;;;19.21;58.25;100210.13;5033131;28;20443;-90
2022/06/04 08:59:23;;;;;;;12.60;5.05;;;;;;;19.43;58.26;100216.78;5040938;28;20044;-92
2022/06/04 09:01:56;;;;;;;12.23;5.88;;;;;;;19.42;57.00;100215.16;5039031;28;20373;-90
2022/06/04 09:04:27;;;;;;;12.88;5.85;;;;;;;19.28;56.82;100219.94;5041005;28;20056;-90
2022/06/04 09:10:13;;;;;;;10.02;6.47;;;;;;;19.35;57.15;100225.81;5035804;28;20105;-91
2022/06/04 09:13:12;;;;;;;10.50;5.82;;;;;;;19.50;56.63;100232.94;5040867;28;20060;-90
2022/06/04 09:15:48;;;;;;;9.32;5.65;;;;;;;19.69;56.50;100234.66;5039618;28;20055;-91
2022/06/04 09:18:18;;;;;;;30.30;7.85;;;;;;;19.97;56.14;100233.69;5040286;28;20037;-91
2022/06/04 09:20:47;;;;;;;36.67;6.95;;;;;;;20.05;55.44;100235.69;5040279;28;20033;-90
2022/06/04 09:23:23;;;;;;;9.80;6.47;;;;;;;19.99;56.04;100237.78;5039210;28;20039;-88
2022/06/04 09:26:00;;;;;;;14.55;5.15;;;;;;;20.00;55.66;100231.13;5041897;28;20468;-90
2022/06/04 09:28:56;;;;;;;20.10;7.50;;;;;;;19.87;55.88;100230.06;5039230;28;20032;-87
2022/06/04 09:31:40;;;;;;;7.68;5.15;;;;;;;19.92;56.14;100237.41;5040351;28;20083;-89
2022/06/04 09:34:19;;;;;;;12.85;5.45;;;;;;;20.02;55.58;100236.31;5040890;28;20489;-88
2022/06/04 09:36:46;;;;;;;9.68;5.57;;;;;;;19.94;56.28;100229.63;5038472;28;20029;-89
2022/06/04 09:39:25;;;;;;;10.90;4.57;;;;;;;19.90;56.19;100239.69;5041116;28;20171;-89
2022/06/04 09:41:54;;;;;;;8.70;5.55;;;;;;;20.14;55.51;100227.44;5039221;28;20082;-89
2022/06/04 09:44:20;;;;;;;13.60;5.95;;;;;;;20.32;55.27;100239.41;5039952;28;20033;-88
2022/06/04 09:46:56;;;;;;;9.70;5.20;;;;;;;20.22;55.08;100234.97;5040383;28;20178;-89
2022/06/04 09:49:37;;;;;;;7.85;4.72;;;;;;;20.32;54.77;100233.88;5039494;28;20404;-89
2022/06/04 09:52:27;;;;;;;9.15;4.95;;;;;;;20.32;54.86;100233.88;5041502;28;20291;-88
2022/06/04 09:55:07;;;;;;;10.63;5.55;;;;;;;20.38;54.75;100237.34;5041109;28;20134;-89
2022/06/04 09:57:36;;;;;;;9.77;4.80;;;;;;;20.23;54.91;100235.81;5038799;28;20496;-87
2022/06/04 10:00:06;;;;;;;16.67;6.45;;;;;;;20.01;56.29;100234.69;5041369;28;20111;-88
2022/06/04 10:02:32;;;;;;;17.23;5.68;;;;;;;20.16;55.04;100233.50;5036745;28;20033;-88
2022/06/04 10:05:18;;;;;;;8.52;5.22;;;;;;;20.23;55.09;100238.56;5041006;28;20029;-89
2022/06/04 10:07:43;;;;;;;14.05;4.95;;;;;;;20.31;54.84;100240.56;5040025;28;20036;-90
2022/06/04 10:10:21;;;;;;;8.68;4.90;;;;;;;20.36;54.77;100240.41;5040428;28;20029;-91
2022/06/04 10:15:46;;;;;;;7.55;4.55;;;;;;;20.48;53.87;100239.00;5039383;28;20803;-89
2022/06/04 10:18:25;;;;;;;7.63;4.70;;;;;;;20.66;53.41;100242.63;5039430;28;20531;-89
2022/06/04 10:20:53;;;;;;;8.77;6.20;;;;;;;20.67;52.92;100240.66;5044462;28;20021;-89
2022/06/04 10:23:18;;;;;;;7.75;4.60;;;;;;;20.77;53.36;100241.19;5044262;28;20054;-90
2022/06/04 10:26:04;;;;;;;10.07;5.70;;;;;;;20.69;53.56;100241.16;5045709;28;20563;-89
2022/06/04 10:28:46;;;;;;;11.50;5.63;;;;;;;20.63;53.28;100235.78;5029490;28;20038;-87
2022/06/04 10:31:36;;;;;;;14.15;6.38;;;;;;;20.52;54.32;100243.56;5030068;28;20085;-90
2022/06/04 10:34:33;;;;;;;9.55;5.53;;;;;;;20.60;53.62;100238.38;5032028;28;20030;-90
2022/06/04 10:37:20;;;;;;;7.22;4.55;;;;;;;20.62;53.38;100248.00;5018031;28;20127;-90
2022/06/04 10:40:13;;;;;;;10.35;6.50;;;;;;;20.70;52.71;100242.81;5037807;28;20033;-89
2022/06/04 10:42:54;;;;;;;10.65;5.93;;;;;;;20.76;53.01;100235.97;5038726;28;20070;-89
2022/06/04 10:45:43;;;;;;;8.80;4.75;;;;;;;20.79;52.80;100238.09;5038433;28;20093;-89
2022/06/04 10:48:27;;;;;;;9.98;6.07;;;;;;;20.94;53.25;100241.53;5034458;28;20048;-89
2022/06/04 10:54:04;;;;;;;9.13;5.32;;;;;;;21.22;52.47;100246.78;5039960;28;20076;-90
2022/06/04 10:56:42;;;;;;;8.52;5.32;;;;;;;21.40;52.34;100238.50;5043803;28;20079;-91
2022/06/04 10:59:23;;;;;;;9.27;5.35;;;;;;;21.54;51.64;100244.66;5041702;28;20115;-92
2022/06/04 11:01:58;;;;;;;8.80;5.03;;;;;;;21.45;52.72;100232.78;5042480;28;20120;-91
2022/06/04 11:04:42;;;;;;;10.23;6.00;;;;;;;21.66;52.48;100229.31;5041829;28;20086;-91
2022/06/04 11:07:26;;;;;;;9.57;5.50;;;;;;;21.90;51.70;100236.31;5042050;28;20033;-90
2022/06/04 11:09:53;;;;;;;11.85;7.25;;;;;;;21.77;51.28;100240.88;5043206;28;20036;-91
2022/06/04 11:12:35;;;;;;;8.32;5.32;;;;;;;22.06;50.69;100249.66;5041680;28;20158;-91
2022/06/04 11:15:09;;;;;;;7.80;5.35;;;;;;;22.05;49.90;100243.28;5019285;28;20052;-91
2022/06/04 11:17:50;;;;;;;14.40;6.82;;;;;;;21.98;49.71;100237.44;5031870;28;20076;-91
2022/06/04 11:20:21;;;;;;;9.48;5.55;;;;;;;21.89;50.25;100234.66;5044377;28;20025;-91
2022/06/04 11:22:59;;;;;;;9.13;5.97;;;;;;;21.91;49.57;100243.47;5048363;28;20048;-90
2022/06/04 11:25:32;;;;;;;9.38;5.65;;;;;;;21.77;50.01;100233.38;5042662;28;20112;-90
2022/06/04 11:28:05;;;;;;;10.70;6.00;;;;;;;21.73;50.15;100237.94;5041626;28;20107;-89
2022/06/04 11:31:07;;;;;;;10.55;6.47;;;;;;;21.70;50.50;100238.63;5042140;28;20024;-90
2022/06/04 11:34:00;;;;;;;8.80;5.57;;;;;;;21.84;50.26;100229.31;5041130;28;20037;-90
2022/06/04 11:36:38;;;;;;;12.37;6.73;;;;;;;21.99;50.28;100226.00;5041344;28;20526;-91
2022/06/04 11:39:16;;;;;;;8.02;5.38;;;;;;;22.13;50.13;100233.31;5043185;28;20044;-90
2022/06/04 11:42:20;;;;;;;15.52;6.45;;;;;;;22.24;49.66;100223.44;5040494;28;20127;-90
2022/06/04 11:44:52;;;;;;;11.13;4.82;;;;;;;22.48;49.14;100227.56;5041461;28;20067;-90
2022/06/04 11:47:52;;;;;;;7.82;5.18;;;;;;;22.59;49.15;100227.19;5041823;28;20037;-91
2022/06/04 11:50:33;;;;;;;10.13;6.15;;;;;;;22.74;48.25;100236.94;5038831;28;20763;-91
2022/06/04 11:53:32;;;;;;;31.30;6.57;;;;;;;22.84;48.44;100224.63;5038197;28;20484;-91
2022/06/04 11:56:08;;;;;;;7.28;4.85;;;;;;;22.90;47.70;100241.91;5038048;28;20116;-91
2022/06/04 11:58:45;;;;;;;11.02;5.55;;;;;;;23.04;46.95;100239.69;5020089;28;20421;-90
2022/06/04 12:01:21;;;;;;;10.15;4.97;;;;;;;23.09;46.77;100238.66;5022126;28;20504;-91
2022/06/04 12:04:05;;;;;;;6.90;4.35;;;;;;;23.09;46.53;100242.25;5031879;28;20621;-90
2022/06/04 12:06:42;;;;;;;;;;;;;;;23.18;46.07;100244.16;5041056;28;20071;-91
2022/06/04 12:09:17;;;;;;;8.80;5.60;;;;;;;23.23;46.32;100243.94;5041988;28;19917;-91
2022/06/04 12:11:54;;;;;;;7.40;4.70;;;;;;;23.38;45.84;100250.03;5030295;28;20049;-90
2022/06/04 12:14:52;;;;;;;9.05;5.32;;;;;;;23.59;44.76;100244.47;5039364;28;20111;-89
2022/06/04 12:17:24;;;;;;;8.52;3.70;;;;;;;23.78;43.64;100243.13;5039909;28;20041;-90
2022/06/04 12:25:46;;;;;;;24.88;6.82;;;;;;;23.51;44.11;100245.38;5041742;28;20049;-90
2022/06/04 12:28:28;;;;;;;6.70;4.55;;;;;;;23.38;44.88;100242.50;5039232;28;20040;-91